createdAt,value
2022-10-01T00:00:02.103Z,43.70
2022-10-01T00:05:26.188Z,44.30
2022-10-01T00:10:30.621Z,46.50
2022-10-01T00:15:33.727Z,41.00
2022-10-01T00:20:43.697Z,40.10
2022-10-01T00:25:46.800Z,41.70
2022-10-01T00:30:49.803Z,40.80
2022-10-01T00:35:55.091Z,43.80
2022-10-01T00:40:58.881Z,45.10
2022-10-01T00:46:18.730Z,42.50
2022-10-01T00:51:23.219Z,39.40
2022-10-01T00:56:26.629Z,45.00
2022-10-01T01:06:32.841Z,42.00
2022-10-01T01:11:55.914Z,67.00
2022-10-01T01:17:08.812Z,93.40
2022-10-01T01:22:14.419Z,50.60
2022-10-01T01:27:46.619Z,44.80
2022-10-01T01:33:13.155Z,46.70
2022-10-01T01:38:22.293Z,37.10
2022-10-01T01:43:31.462Z,43.10
2022-10-01T01:48:37.926Z,55.30
2022-10-01T01:53:41.411Z,46.50
2022-10-01T01:58:46.091Z,41.60
2022-10-01T02:03:49.505Z,42.90
2022-10-01T02:14:04.215Z,41.00
2022-10-01T02:19:20.120Z,45.10
2022-10-01T02:24:41.659Z,44.20
2022-10-01T02:29:45.994Z,38.50
2022-10-01T02:34:51.221Z,43.20
2022-10-01T02:39:57.584Z,44.90
2022-10-01T02:45:03.547Z,47.20
2022-10-01T02:50:08.732Z,41.90
2022-10-01T02:55:23.638Z,34.80
2022-10-01T03:00:27.257Z,39.10
2022-10-01T03:05:31.285Z,39.00
2022-10-01T03:10:35.003Z,40.30
2022-10-01T03:15:38.056Z,39.30
2022-10-01T03:20:41.215Z,37.70
2022-10-01T03:25:44.220Z,39.10
2022-10-01T03:30:47.220Z,37.40
2022-10-01T03:35:50.224Z,36.70
2022-10-01T03:40:53.536Z,41.10
2022-10-01T03:51:00.975Z,38.50
2022-10-01T03:56:05.412Z,36.40
2022-10-01T04:01:08.518Z,38.40
2022-10-01T04:06:12.648Z,35.60
2022-10-01T04:11:15.855Z,38.80
2022-10-01T04:16:19.170Z,39.90
2022-10-01T04:26:25.478Z,49.40
2022-10-01T04:31:35.284Z,52.90
2022-10-01T04:36:38.963Z,58.70
2022-10-01T04:41:42.174Z,45.80
2022-10-01T04:51:48.583Z,61.80
2022-10-01T04:56:51.998Z,82.00
2022-10-01T05:06:58.207Z,52.00
2022-10-01T05:12:01.954Z,65.20
2022-10-01T05:17:06.162Z,67.10
2022-10-01T05:22:09.264Z,58.90
2022-10-01T05:27:13.506Z,57.90
2022-10-01T05:32:16.808Z,46.80
2022-10-01T05:37:19.943Z,61.80
2022-10-01T05:42:23.018Z,53.70
2022-10-01T05:47:26.534Z,31.20
2022-10-01T05:52:29.742Z,24.00
2022-10-01T05:57:33.319Z,21.70
2022-10-01T06:02:36.531Z,25.10
2022-10-01T06:07:39.879Z,29.40
2022-10-01T06:12:46.247Z,25.10
2022-10-01T06:17:49.468Z,22.20
2022-10-01T06:22:57.386Z,23.00
2022-10-01T06:28:01.265Z,21.50
2022-10-01T06:33:13.223Z,39.10
2022-10-01T06:38:18.443Z,44.70
2022-10-01T06:43:22.761Z,36.70
2022-10-01T06:48:25.931Z,35.60
2022-10-01T06:53:29.759Z,30.90
2022-10-01T06:58:33.460Z,18.20
2022-10-01T07:03:36.673Z,15.20
2022-10-01T07:08:40.083Z,13.50
2022-10-01T07:13:43.188Z,12.90
2022-10-01T07:18:46.246Z,11.40
2022-10-01T07:23:49.401Z,11.40
2022-10-01T07:28:52.915Z,10.70
2022-10-01T07:33:59.296Z,9.00
2022-10-01T07:39:02.402Z,9.20
2022-10-01T07:44:05.611Z,8.90
2022-10-01T07:49:09.848Z,9.30
2022-10-01T07:54:13.972Z,8.70
2022-10-01T07:59:17.282Z,8.30
2022-10-01T08:04:40.152Z,7.00
2022-10-01T08:09:43.463Z,7.30
2022-10-01T08:14:48.118Z,7.00
2022-10-01T08:19:51.312Z,6.90
2022-10-01T08:24:54.978Z,7.30
2022-10-01T08:29:58.033Z,6.60
2022-10-01T08:35:01.564Z,6.30
2022-10-01T08:40:07.502Z,5.50
2022-10-01T08:45:27.633Z,5.60
2022-10-01T08:50:53.261Z,7.40
2022-10-01T08:55:57.934Z,5.90
2022-10-01T09:01:01.837Z,8.10
2022-10-01T09:06:11.576Z,5.20
2022-10-01T09:11:25.037Z,5.70
2022-10-01T09:16:56.205Z,13.00
2022-10-01T09:22:03.796Z,4.30
2022-10-01T09:27:19.538Z,4.40
2022-10-01T09:32:32.393Z,4.60
2022-10-01T09:37:49.173Z,4.30
2022-10-01T09:42:52.687Z,4.60
2022-10-01T09:48:04.183Z,4.50
2022-10-01T09:53:18.749Z,4.60
2022-10-01T09:58:27.091Z,6.50
2022-10-01T10:03:32.153Z,4.70
2022-10-01T10:08:43.461Z,7.90
2022-10-01T10:13:53.183Z,6.40
2022-10-01T10:19:07.175Z,5.70
2022-10-01T10:24:32.776Z,5.00
2022-10-01T10:29:37.866Z,11.60
2022-10-01T10:34:47.078Z,7.20
2022-10-01T10:39:52.361Z,12.40
2022-10-01T10:45:03.455Z,7.40
2022-10-01T10:50:30.742Z,5.50
2022-10-01T10:55:33.926Z,13.50
2022-10-01T11:00:46.548Z,50.60
2022-10-01T11:05:52.375Z,8.80
2022-10-01T11:11:34.253Z,7.20
2022-10-01T11:17:00.392Z,6.00
2022-10-01T11:22:24.585Z,7.10
2022-10-01T11:27:37.518Z,7.10
2022-10-01T11:38:42.728Z,6.50
2022-10-01T11:43:55.761Z,7.80
2022-10-01T11:54:15.685Z,10.20
2022-10-01T11:59:22.785Z,6.20
2022-10-01T12:04:42.863Z,9.00
2022-10-01T12:09:55.422Z,6.60
2022-10-01T12:15:14.906Z,8.20
2022-10-01T12:20:41.462Z,8.10
2022-10-01T12:25:55.430Z,8.50
2022-10-01T12:31:19.413Z,8.40
2022-10-01T12:37:04.815Z,7.10
2022-10-01T12:42:41.609Z,8.50
2022-10-01T12:48:16.767Z,12.10
2022-10-01T12:53:36.563Z,11.10
2022-10-01T12:59:07.831Z,10.20
2022-10-01T13:04:35.612Z,8.40
2022-10-01T13:10:16.402Z,11.40
2022-10-01T13:15:42.750Z,10.20
2022-10-01T13:21:01.835Z,9.20
2022-10-01T13:26:37.407Z,9.40
2022-10-01T13:32:02.762Z,13.40
2022-10-01T13:37:32.464Z,8.40
2022-10-01T13:42:47.897Z,10.00
2022-10-01T13:47:51.465Z,10.20
2022-10-01T13:53:14.385Z,9.80
2022-10-01T13:58:31.270Z,14.70
2022-10-01T14:03:45.020Z,12.40
2022-10-01T14:08:55.437Z,16.00
2022-10-01T14:14:23.082Z,9.50
2022-10-01T14:19:28.588Z,13.70
2022-10-01T14:24:51.098Z,10.10
2022-10-01T14:30:13.049Z,12.70
2022-10-01T14:35:43.084Z,11.30
2022-10-01T14:40:48.888Z,11.50
2022-10-01T14:45:59.200Z,10.90
2022-10-01T14:51:05.642Z,12.40
2022-10-01T14:56:14.455Z,20.10
2022-10-01T15:01:19.707Z,10.60
2022-10-01T15:06:28.242Z,11.40
2022-10-01T15:11:34.020Z,21.50
2022-10-01T15:16:38.335Z,30.30
2022-10-01T15:21:48.845Z,27.40
2022-10-01T15:26:54.553Z,19.70
2022-10-01T15:31:58.944Z,19.50
2022-10-01T15:37:02.942Z,25.90
2022-10-01T15:42:26.841Z,29.60
2022-10-01T15:47:35.175Z,39.30
2022-10-01T15:52:52.407Z,31.10
2022-10-01T15:58:07.495Z,36.40
2022-10-01T16:03:36.611Z,35.30
2022-10-01T16:08:55.586Z,32.40
2022-10-01T16:14:44.362Z,33.10
2022-10-01T16:19:50.975Z,40.90
2022-10-01T16:25:25.388Z,45.20
2022-10-01T16:30:30.004Z,51.70
2022-10-01T16:35:36.119Z,66.10
2022-10-01T16:40:44.997Z,83.60
2022-10-01T16:45:48.442Z,29.50
2022-10-01T16:50:59.070Z,30.50
2022-10-01T16:56:02.351Z,36.60
2022-10-01T17:01:11.957Z,38.30
2022-10-01T17:06:15.427Z,69.50
2022-10-01T17:11:18.703Z,22.60
2022-10-01T17:16:24.666Z,32.00
2022-10-01T17:21:29.709Z,22.80
2022-10-01T17:26:33.429Z,22.30
2022-10-01T17:31:38.563Z,29.30
2022-10-01T17:36:42.049Z,34.20
2022-10-01T17:41:45.311Z,37.10
2022-10-01T17:56:56.826Z,31.00
2022-10-01T18:02:01.312Z,25.30
2022-10-01T18:07:08.568Z,30.60
2022-10-01T18:12:13.639Z,28.20
2022-10-01T18:17:17.602Z,44.50
2022-10-01T18:22:22.054Z,46.60
2022-10-01T18:27:26.215Z,48.90
2022-10-01T18:32:37.970Z,75.30
2022-10-01T18:37:41.229Z,72.90
2022-10-01T18:43:08.876Z,31.60
2022-10-01T18:48:52.266Z,70.80
2022-10-01T18:54:13.555Z,38.70
2022-10-01T18:59:36.155Z,47.50
2022-10-01T19:04:45.405Z,27.50
2022-10-01T19:10:09.133Z,56.40
2022-10-01T19:15:40.568Z,171.40
2022-10-01T19:21:08.041Z,71.20
2022-10-01T19:26:29.381Z,84.90
2022-10-01T19:31:55.241Z,32.30
2022-10-01T19:37:11.529Z,50.50
2022-10-01T19:42:22.418Z,34.20
2022-10-01T19:47:41.086Z,45.10
2022-10-01T19:52:48.706Z,67.90
2022-10-01T19:57:53.032Z,35.00
2022-10-01T20:03:01.051Z,44.20
2022-10-01T20:08:14.719Z,41.90
2022-10-01T20:13:37.264Z,29.00
2022-10-01T20:18:52.563Z,48.90
2022-10-01T20:24:14.818Z,66.50
2022-10-01T20:29:58.475Z,43.20
2022-10-01T20:35:26.793Z,35.00
2022-10-01T20:40:52.852Z,29.80
2022-10-01T20:45:57.727Z,30.20
2022-10-01T20:51:07.105Z,28.40
2022-10-01T20:56:26.732Z,32.80
2022-10-01T21:01:35.115Z,32.70
2022-10-01T21:07:01.471Z,38.60
2022-10-01T21:12:16.593Z,32.20
2022-10-01T21:17:50.014Z,21.60
2022-10-01T21:23:14.547Z,20.60
2022-10-01T21:28:21.355Z,15.80
2022-10-01T21:33:31.594Z,18.10
2022-10-01T21:38:49.771Z,14.30
2022-10-01T21:44:11.133Z,13.50
2022-10-01T21:49:34.044Z,13.80
2022-10-01T21:55:14.855Z,11.70
2022-10-01T22:00:25.050Z,8.00
2022-10-01T22:06:13.016Z,7.20
2022-10-01T22:11:26.301Z,7.40
2022-10-01T22:16:38.728Z,9.80
2022-10-01T22:21:53.486Z,10.80
2022-10-01T22:27:08.984Z,8.40
2022-10-01T22:32:15.482Z,6.10
2022-10-01T22:37:24.713Z,5.90
2022-10-01T22:42:42.663Z,5.30
2022-10-01T22:48:39.790Z,7.20
2022-10-01T22:54:07.752Z,5.60
2022-10-01T22:59:35.893Z,5.80
2022-10-01T23:05:16.816Z,6.90
2022-10-01T23:10:34.770Z,5.90
2022-10-01T23:15:57.428Z,6.90
2022-10-01T23:21:00.541Z,6.20
2022-10-01T23:26:18.904Z,6.80
2022-10-01T23:32:00.445Z,6.30
2022-10-01T23:37:17.492Z,7.00
2022-10-01T23:42:28.124Z,8.50
2022-10-01T23:47:45.976Z,8.20
2022-10-01T23:53:03.537Z,8.40
2022-10-01T23:58:11.540Z,9.60
